Time;durP1;ratioP1;P1;durP2;ratioP2;P2;SDS_P1;SDS_P2;PMS_P1;PMS_P2;Temp;Humidity;BMP_temperature;BMP_pressure;BME280_temperature;BME280_humidity;BME280_pressure;Samples;Min_cycle;Max_cycle;Signal;HPM_P1;HPM_P2
2021/05/08 00:00:24;;;;;;;20.30;11.65;;;11.00;99.90;;;;;;5014229;28;20068;-77
2021/05/08 00:02:50;;;;;;;19.27;9.82;;;11.10;99.90;;;;;;5015637;28;20065;-77
2021/05/08 00:05:16;;;;;;;14.57;8.70;;;11.10;99.90;;;;;;5015750;28;20060;-77
2021/05/08 00:07:42;;;;;;;16.48;8.85;;;11.00;99.90;;;;;;5015838;28;20547;-76
2021/05/08 00:10:10;;;;;;;35.53;10.50;;;11.10;99.90;;;;;;5015527;28;20395;-77
2021/05/08 00:12:36;;;;;;;27.90;9.32;;;11.10;99.90;;;;;;5015587;28;20033;-77
2021/05/08 00:15:03;;;;;;;88.43;10.98;;;11.00;99.90;;;;;;5015202;28;20034;-77
2021/05/08 00:17:29;;;;;;;106.45;10.23;;;11.00;99.90;;;;;;5015489;28;20489;-77
2021/05/08 00:19:55;;;;;;;33.00;10.32;;;10.90;99.90;;;;;;5015551;28;20113;-77
2021/05/08 00:22:21;;;;;;;12.45;7.90;;;10.90;99.90;;;;;;5032806;28;20038;-77
2021/05/08 00:24:47;;;;;;;12.60;7.88;;;10.90;99.90;;;;;;5035156;28;20037;-77
2021/05/08 00:27:12;;;;;;;68.22;8.93;;;10.90;99.90;;;;;;5035085;28;20040;-77
2021/05/08 00:29:38;;;;;;;30.63;6.47;;;10.70;99.90;;;;;;5025525;28;20504;-77
2021/05/08 00:32:04;;;;;;;7.35;3.78;;;10.50;99.90;;;;;;5015179;28;20022;-77
2021/05/08 00:34:30;;;;;;;7.28;5.32;;;10.60;99.90;;;;;;5013827;28;20038;-77
2021/05/08 00:36:56;;;;;;;48.95;9.25;;;10.70;99.90;;;;;;5013744;28;20043;-77
2021/05/08 00:39:21;;;;;;;45.17;6.65;;;10.60;99.90;;;;;;5015038;28;20026;-77
2021/05/08 00:41:48;;;;;;;38.58;7.75;;;10.50;99.90;;;;;;5015071;28;20034;-77
2021/05/08 00:44:15;;;;;;;70.78;8.73;;;10.50;99.90;;;;;;5014595;28;20072;-77
2021/05/08 00:46:41;;;;;;;27.45;7.03;;;10.40;99.90;;;;;;5014226;28;20543;-77
2021/05/08 00:49:07;;;;;;;18.50;6.60;;;10.50;99.90;;;;;;5014594;28;20030;-77
2021/05/08 00:51:33;;;;;;;43.17;7.50;;;10.50;99.90;;;;;;5021478;28;20037;-77
2021/05/08 00:53:59;;;;;;;11.85;5.00;;;10.50;99.90;;;;;;5034756;28;20033;-77
2021/05/08 00:56:25;;;;;;;5.85;4.75;;;10.40;99.90;;;;;;5033295;28;20057;-77
2021/05/08 00:58:51;;;;;;;16.02;5.20;;;10.50;99.90;;;;;;5034063;28;20029;-77
2021/05/08 01:01:17;;;;;;;27.40;6.97;;;10.40;99.90;;;;;;5034571;28;20021;-77
2021/05/08 01:03:44;;;;;;;47.50;7.60;;;10.50;99.90;;;;;;5034097;28;20119;-77
2021/05/08 01:06:10;;;;;;;49.13;7.38;;;10.50;99.90;;;;;;5034476;28;20029;-77
2021/05/08 01:08:37;;;;;;;69.07;12.32;;;10.40;99.90;;;;;;5034045;28;20485;-77
2021/05/08 01:11:03;;;;;;;45.00;12.23;;;10.40;99.90;;;;;;5034105;28;20014;-77
2021/05/08 01:13:29;;;;;;;59.58;10.82;;;10.40;99.90;;;;;;5033972;28;20439;-77
2021/05/08 01:15:55;;;;;;;6.82;5.70;;;10.20;99.90;;;;;;5030204;28;20034;-77
2021/05/08 01:18:22;;;;;;;12.75;8.57;;;10.30;99.90;;;;;;5034352;28;20087;-77
2021/05/08 01:20:47;;;;;;;19.15;6.30;;;10.30;99.90;;;;;;5033265;28;20434;-77
2021/05/08 01:23:13;;;;;;;7.53;5.20;;;10.20;99.90;;;;;;5034040;28;20160;-77
2021/05/08 01:25:39;;;;;;;24.80;5.72;;;10.10;99.90;;;;;;5033872;28;20388;-77
2021/05/08 01:28:05;;;;;;;10.45;4.30;;;9.90;99.90;;;;;;5032410;28;20104;-77
2021/05/08 01:30:33;;;;;;;32.63;3.85;;;9.80;99.90;;;;;;5034116;28;20159;-77
2021/05/08 01:32:59;;;;;;;123.60;5.50;;;9.60;99.90;;;;;;5033924;28;20033;-77
2021/05/08 01:35:29;;;;;;;51.67;4.50;;;9.40;99.90;;;;;;5033833;28;20037;-77
2021/05/08 01:37:55;;;;;;;46.88;4.13;;;9.50;99.90;;;;;;5033823;28;20029;-77
2021/05/08 01:40:27;;;;;;;28.08;4.07;;;9.90;99.90;;;;;;5033588;28;20393;-77
2021/05/08 01:42:53;;;;;;;27.75;4.70;;;9.80;99.90;;;;;;5033385;28;20025;-76
2021/05/08 01:45:21;;;;;;;33.38;4.65;;;9.80;99.90;;;;;;5033599;28;20032;-77
2021/05/08 01:47:47;;;;;;;55.28;4.53;;;9.90;99.90;;;;;;5033330;28;20438;-76
2021/05/08 01:50:16;;;;;;;56.38;4.30;;;9.80;99.90;;;;;;5033605;28;20028;-77
2021/05/08 01:52:42;;;;;;;44.60;6.20;;;9.90;99.90;;;;;;5015625;28;20034;-77
2021/05/08 01:55:15;;;;;;;69.18;7.95;;;10.00;99.90;;;;;;5013942;28;20061;-77
2021/05/08 01:57:43;;;;;;;47.05;5.90;;;9.90;99.90;;;;;;5012590;28;20030;-77
2021/05/08 02:00:21;;;;;;;25.42;4.68;;;9.80;99.90;;;;;;5013438;28;20025;-77
2021/05/08 02:02:48;;;;;;;29.88;4.55;;;9.90;99.90;;;;;;5030368;28;20055;-77
2021/05/08 02:05:14;;;;;;;36.83;4.03;;;10.00;99.90;;;;;;5033375;28;20087;-77
2021/05/08 02:07:40;;;;;;;25.60;6.70;;;10.00;99.90;;;;;;5033230;28;20029;-77
2021/05/08 02:10:08;;;;;;;25.08;4.82;;;10.00;99.90;;;;;;5032867;28;20022;-77
2021/05/08 02:12:37;;;;;;;30.80;4.30;;;9.90;99.90;;;;;;5022898;28;20045;-77
2021/05/08 02:15:08;;;;;;;33.40;5.97;;;9.80;99.90;;;;;;5013324;28;20022;-77
2021/05/08 02:17:35;;;;;;;72.30;8.85;;;9.80;99.90;;;;;;5013197;28;20034;-77
2021/05/08 02:20:01;;;;;;;92.97;9.25;;;9.80;99.90;;;;;;5013396;28;20084;-77
2021/05/08 02:22:27;;;;;;;66.30;10.02;;;9.80;99.90;;;;;;5012965;28;20034;-77
2021/05/08 02:24:52;;;;;;;77.32;9.02;;;9.80;99.90;;;;;;5012567;28;20037;-77
2021/05/08 02:27:19;;;;;;;65.03;8.90;;;9.80;99.90;;;;;;5023216;28;20033;-77
2021/05/08 02:29:44;;;;;;;47.92;6.28;;;9.80;99.90;;;;;;5032892;28;20022;-76
2021/05/08 02:32:10;;;;;;;76.97;6.82;;;9.80;99.90;;;;;;5032945;28;20097;-77
2021/05/08 02:34:36;;;;;;;60.40;5.60;;;9.80;99.90;;;;;;5033019;28;20126;-77
2021/05/08 02:37:01;;;;;;;49.00;5.80;;;9.80;99.90;;;;;;5027658;28;20040;-77
2021/05/08 02:39:27;;;;;;;48.70;5.63;;;9.70;99.90;;;;;;5011659;28;20030;-77
2021/05/08 02:41:53;;;;;;;16.55;4.28;;;9.60;99.90;;;;;;5013035;28;20088;-77
2021/05/08 02:44:19;;;;;;;19.35;3.88;;;9.60;99.90;;;;;;5013097;28;20429;-76
2021/05/08 02:46:45;;;;;;;25.63;2.20;;;9.70;99.90;;;;;;5013466;28;20034;-77
2021/05/08 02:49:11;;;;;;;30.98;2.33;;;9.70;99.90;;;;;;5013345;28;20101;-77
2021/05/08 02:51:36;;;;;;;12.52;2.13;;;9.60;99.90;;;;;;5013083;28;20069;-77
2021/05/08 02:54:03;;;;;;;23.60;1.88;;;9.60;99.90;;;;;;5012628;28;20029;-77
2021/05/08 02:56:28;;;;;;;14.90;1.98;;;9.50;99.90;;;;;;5013037;28;20030;-77
2021/05/08 02:58:54;;;;;;;6.57;2.17;;;9.40;99.90;;;;;;5013072;28;20041;-77
2021/05/08 03:01:20;;;;;;;18.23;2.00;;;9.20;99.90;;;;;;5013197;28;20105;-77
2021/05/08 03:03:45;;;;;;;12.50;2.53;;;9.40;99.90;;;;;;5012537;28;20129;-77
2021/05/08 03:06:11;;;;;;;14.60;2.92;;;9.50;99.90;;;;;;5011560;28;20459;-77
2021/05/08 03:08:37;;;;;;;13.95;3.30;;;9.40;99.90;;;;;;5012736;28;20697;-77
2021/05/08 03:11:03;;;;;;;6.60;2.63;;;9.40;99.90;;;;;;5016348;28;20084;-77
2021/05/08 03:13:28;;;;;;;8.55;2.97;;;9.50;99.90;;;;;;5032953;28;20361;-77
2021/05/08 03:15:54;;;;;;;12.27;2.17;;;9.40;99.90;;;;;;5034877;28;20030;-77
2021/05/08 03:18:20;;;;;;;10.75;1.83;;;9.50;99.90;;;;;;5036677;28;20072;-77
2021/05/08 03:20:46;;;;;;;2.38;1.60;;;9.50;99.90;;;;;;5036441;28;20033;-77
2021/05/08 03:23:11;;;;;;;9.18;1.90;;;9.40;99.90;;;;;;5035383;28;20033;-77
2021/05/08 03:25:37;;;;;;;29.60;2.42;;;9.50;99.90;;;;;;5036308;28;20064;-77
2021/05/08 03:28:03;;;;;;;33.83;2.40;;;9.40;99.90;;;;;;5036351;28;20469;-77
2021/05/08 03:30:29;;;;;;;48.00;4.35;;;9.40;99.90;;;;;;5036274;28;20075;-77
2021/05/08 03:32:55;;;;;;;51.78;3.15;;;9.20;99.90;;;;;;5026133;28;20359;-77
2021/05/08 03:35:20;;;;;;;65.40;3.83;;;8.90;99.90;;;;;;5016084;28;20075;-77
2021/05/08 03:37:46;;;;;;;28.60;3.83;;;9.00;99.90;;;;;;5014855;28;20340;-77
2021/05/08 03:40:13;;;;;;;29.00;2.78;;;9.10;99.90;;;;;;5017670;28;20685;-77
2021/05/08 03:42:38;;;;;;;31.38;3.42;;;9.20;99.90;;;;;;5036005;28;20167;-77
2021/05/08 03:45:05;;;;;;;29.88;3.10;;;9.20;99.90;;;;;;5035703;28;20112;-77
2021/05/08 03:47:30;;;;;;;51.10;2.90;;;9.10;99.90;;;;;;5035867;28;20021;-77
2021/05/08 03:49:56;;;;;;;18.58;3.10;;;9.00;99.90;;;;;;5027390;28;20030;-77
2021/05/08 03:52:22;;;;;;;25.00;2.33;;;9.00;99.90;;;;;;5015606;28;20022;-77
2021/05/08 03:54:48;;;;;;;21.70;2.78;;;8.80;99.90;;;;;;5015919;28;20028;-76
2021/05/08 03:57:14;;;;;;;22.67;2.70;;;8.70;99.90;;;;;;5015771;28;20116;-77
2021/05/08 03:59:40;;;;;;;38.97;5.85;;;8.70;99.90;;;;;;5015952;28;20092;-77
2021/05/08 04:02:05;;;;;;;16.90;3.30;;;8.70;99.90;;;;;;5015829;28;20125;-77
2021/05/08 04:04:31;;;;;;;12.80;3.08;;;8.70;99.90;;;;;;5014482;28;20034;-77
2021/05/08 04:06:57;;;;;;;11.57;2.88;;;8.50;99.90;;;;;;5015622;28;20026;-77
2021/05/08 04:09:23;;;;;;;10.98;3.03;;;8.60;99.90;;;;;;5033797;28;20030;-77
2021/05/08 04:11:48;;;;;;;14.25;2.63;;;8.70;99.90;;;;;;5035231;28;20075;-76
2021/05/08 04:14:14;;;;;;;14.85;1.67;;;8.60;99.90;;;;;;5035441;28;20532;-77
2021/05/08 04:16:40;;;;;;;10.65;1.67;;;8.60;99.90;;;;;;5035390;28;20021;-76
2021/05/08 04:19:06;;;;;;;21.70;3.30;;;8.60;99.90;;;;;;5019932;28;20077;-76
2021/05/08 04:21:32;;;;;;;52.70;5.30;;;8.40;99.90;;;;;;5014349;28;20049;-77
2021/05/08 04:23:58;;;;;;;42.47;2.63;;;8.30;99.90;;;;;;5015526;28;20096;-77
2021/05/08 04:26:26;;;;;;;26.13;2.25;;;8.40;99.90;;;;;;5015264;28;20478;-77
2021/05/08 04:28:52;;;;;;;5.95;1.58;;;8.40;99.90;;;;;;5024677;28;20021;-77
2021/05/08 04:31:17;;;;;;;5.72;1.52;;;8.30;99.90;;;;;;5034228;28;20032;-76
2021/05/08 04:33:43;;;;;;;5.63;1.65;;;8.50;99.90;;;;;;5035062;28;20017;-77
2021/05/08 04:36:09;;;;;;;4.13;1.52;;;8.20;99.90;;;;;;5034934;28;20053;-77
2021/05/08 04:38:38;;;;;;;7.28;1.50;;;8.40;99.90;;;;;;5034991;28;20117;-76
2021/05/08 04:41:03;;;;;;;5.85;2.00;;;8.40;99.90;;;;;;5026055;28;20072;-76
2021/05/08 04:43:29;;;;;;;7.10;1.95;;;8.50;99.90;;;;;;5014367;28;20045;-77
2021/05/08 04:45:55;;;;;;;4.85;1.40;;;8.60;99.90;;;;;;5015164;28;20104;-77
2021/05/08 04:48:26;;;;;;;7.78;1.83;;;8.50;99.90;;;;;;5014931;28;20479;-77
2021/05/08 04:50:53;;;;;;;3.28;1.45;;;8.60;99.90;;;;;;5014465;28;20053;-76
2021/05/08 04:53:20;;;;;;;5.75;1.50;;;8.60;99.90;;;;;;5014056;28;20024;-76
2021/05/08 04:55:47;;;;;;;1.85;1.75;;;8.40;99.90;;;;;;4995105;28;20032;-77
2021/05/08 04:58:13;;;;;;;6.63;1.80;;;8.30;99.90;;;;;;4993937;28;20039;-76
2021/05/08 05:00:39;;;;;;;2.92;1.50;;;8.40;99.90;;;;;;4995224;28;20053;-77
2021/05/08 05:03:05;;;;;;;1.40;1.17;;;8.10;99.90;;;;;;4995030;28;20054;-76
2021/05/08 05:05:31;;;;;;;1.85;1.45;;;8.20;99.90;;;;;;5010011;28;20026;-76
2021/05/08 05:07:57;;;;;;;3.20;1.80;;;8.20;99.90;;;;;;5014583;28;20390;-77
2021/05/08 05:10:22;;;;;;;1.58;1.48;;;8.30;99.90;;;;;;5014569;28;20101;-77
2021/05/08 05:12:48;;;;;;;1.75;1.65;;;8.50;99.90;;;;;;5013866;28;20471;-77
2021/05/08 05:15:17;;;;;;;3.75;1.50;;;8.50;99.90;;;;;;5012740;28;20033;-77
2021/05/08 05:17:43;;;;;;;5.13;2.05;;;8.50;99.90;;;;;;5014810;28;20022;-76
2021/05/08 05:20:10;;;;;;;2.10;1.90;;;8.50;99.90;;;;;;5033531;28;20482;-77
2021/05/08 05:22:36;;;;;;;2.28;2.00;;;8.60;99.90;;;;;;5034013;28;20060;-76
2021/05/08 05:25:03;;;;;;;5.22;1.90;;;8.50;99.90;;;;;;5024409;28;20453;-77
2021/05/08 05:27:30;;;;;;;4.18;2.47;;;8.60;99.90;;;;;;5014296;28;20026;-76
2021/05/08 05:29:56;;;;;;;4.53;3.22;;;8.60;99.90;;;;;;5023043;28;20025;-77
2021/05/08 05:32:21;;;;;;;2.63;1.92;;;8.60;99.90;;;;;;5033724;28;20045;-77
2021/05/08 05:34:47;;;;;;;2.58;1.83;;;8.60;99.90;;;;;;5030666;28;20458;-77
2021/05/08 05:37:13;;;;;;;1.65;1.52;;;8.70;99.90;;;;;;5013467;28;20088;-77
2021/05/08 05:39:39;;;;;;;1.73;1.63;;;8.70;99.90;;;;;;5013359;28;20492;-77
2021/05/08 05:42:05;;;;;;;2.22;2.03;;;8.70;99.90;;;;;;5019488;28;20030;-77
2021/05/08 05:44:31;;;;;;;1.67;1.58;;;8.70;99.90;;;;;;5013058;28;20109;-77
2021/05/08 05:47:04;;;;;;;2.63;1.55;;;8.80;99.90;;;;;;5013351;28;20061;-77
2021/05/08 05:49:30;;;;;;;1.70;1.60;;;8.90;99.90;;;;;;5012006;28;20026;-77
2021/05/08 05:51:56;;;;;;;4.93;3.38;;;8.90;99.90;;;;;;5013660;28;20025;-77
2021/05/08 05:54:21;;;;;;;2.55;2.28;;;9.10;99.90;;;;;;5012351;28;20034;-77
2021/05/08 05:56:47;;;;;;;1.70;1.60;;;9.20;99.90;;;;;;5013257;28;20105;-77
2021/05/08 05:59:13;;;;;;;2.03;1.92;;;9.30;99.90;;;;;;5013552;28;20084;-76
2021/05/08 06:01:38;;;;;;;3.70;2.17;;;9.40;99.90;;;;;;5016170;28;20029;-77
2021/05/08 06:04:05;;;;;;;5.13;1.70;;;9.50;99.90;;;;;;5013062;28;20080;-77
2021/05/08 06:06:33;;;;;;;1.90;1.70;;;9.40;99.90;;;;;;5011868;28;20034;-79
2021/05/08 06:08:58;;;;;;;3.63;1.65;;;9.30;99.90;;;;;;5011918;28;20120;-80
2021/05/08 06:11:24;;;;;;;2.38;2.17;;;9.40;99.90;;;;;;5016158;28;20385;-79
2021/05/08 06:13:50;;;;;;;2.30;2.10;;;9.50;99.90;;;;;;5012643;28;20041;-80
2021/05/08 06:16:16;;;;;;;2.83;2.53;;;9.60;99.90;;;;;;5012381;28;20485;-79
2021/05/08 06:18:41;;;;;;;2.00;1.90;;;9.70;99.90;;;;;;5011792;28;20029;-79
2021/05/08 06:21:07;;;;;;;2.35;1.80;;;9.70;99.90;;;;;;5011349;28;20018;-79
2021/05/08 06:23:33;;;;;;;1.85;1.70;;;9.80;99.90;;;;;;5015238;28;20029;-83
2021/05/08 06:25:59;;;;;;;2.15;1.95;;;9.70;99.90;;;;;;5011671;28;20093;-79
2021/05/08 06:28:24;;;;;;;4.78;2.47;;;9.70;99.90;;;;;;5011954;28;20574;-79
2021/05/08 06:30:54;;;;;;;4.07;2.08;;;9.90;99.90;;;;;;5011915;28;20026;-79
2021/05/08 06:33:22;;;;;;;4.53;2.00;;;9.90;99.90;;;;;;5010240;28;20056;-79
2021/05/08 06:35:49;;;;;;;2.65;2.38;;;10.00;99.90;;;;;;5010054;28;20045;-81
2021/05/08 06:38:14;;;;;;;5.20;2.28;;;10.10;99.90;;;;;;5010865;28;20034;-81
2021/05/08 06:40:41;;;;;;;7.05;1.85;;;10.20;99.90;;;;;;5010792;28;20375;-81
2021/05/08 06:43:08;;;;;;;2.72;2.35;;;10.30;99.90;;;;;;5014691;28;20029;-81
2021/05/08 06:45:34;;;;;;;4.47;1.90;;;10.30;99.90;;;;;;5025038;28;20053;-81
2021/05/08 06:48:00;;;;;;;4.72;2.05;;;10.40;99.90;;;;;;5016815;28;20025;-84
2021/05/08 06:50:27;;;;;;;2.10;2.00;;;10.40;99.90;;;;;;5003482;28;20031;-82
2021/05/08 06:53:07;;;;;;;3.10;1.95;;;10.60;99.90;;;;;;5013447;28;20101;-79
2021/05/08 06:55:33;;;;;;;2.25;2.10;;;10.70;99.90;;;;;;5012135;28;20033;-80
2021/05/08 06:58:00;;;;;;;2.85;2.17;;;10.90;99.90;;;;;;5015403;28;20048;-83
2021/05/08 07:00:26;;;;;;;3.33;2.88;;;11.00;99.90;;;;;;5016455;28;20045;-85
2021/05/08 07:02:52;;;;;;;3.25;2.90;;;11.20;99.90;;;;;;5012405;28;20045;-83
2021/05/08 07:05:17;;;;;;;2.40;2.20;;;11.30;99.90;;;;;;5013640;28;20544;-82
2021/05/08 07:07:43;;;;;;;7.57;2.20;;;11.50;99.90;;;;;;5020513;28;20022;-82
2021/05/08 07:10:10;;;;;;;5.72;2.10;;;11.60;99.90;;;;;;5016185;28;20026;-82
2021/05/08 07:12:36;;;;;;;6.28;2.95;;;11.60;99.90;;;;;;5024231;28;20026;-82
2021/05/08 07:15:02;;;;;;;2.42;2.10;;;11.80;99.90;;;;;;5015157;28;20084;-82
2021/05/08 07:17:27;;;;;;;2.88;2.15;;;12.10;99.90;;;;;;5014023;28;20449;-83
2021/05/08 07:19:53;;;;;;;3.40;2.10;;;12.30;99.90;;;;;;5013770;28;20062;-83
2021/05/08 07:22:19;;;;;;;2.65;2.05;;;12.40;99.90;;;;;;5019016;28;20100;-83
2021/05/08 07:24:45;;;;;;;3.95;2.40;;;12.60;99.90;;;;;;5028551;28;20509;-83
2021/05/08 07:27:11;;;;;;;4.25;2.17;;;12.80;99.90;;;;;;5020796;28;20025;-83
2021/05/08 07:29:36;;;;;;;1.92;1.83;;;12.90;99.90;;;;;;5015381;28;20034;-83
2021/05/08 07:32:02;;;;;;;4.15;2.17;;;13.00;99.90;;;;;;5015571;28;20018;-84
2021/05/08 07:34:28;;;;;;;6.82;1.90;;;13.20;99.90;;;;;;5021638;28;20074;-83
2021/05/08 07:36:54;;;;;;;2.20;2.00;;;13.40;99.90;;;;;;5018800;28;20041;-83
2021/05/08 07:39:19;;;;;;;2.70;2.50;;;13.50;99.90;;;;;;5014736;28;20556;-78
2021/05/08 07:41:45;;;;;;;2.88;1.80;;;13.80;99.90;;;;;;5015345;28;20152;-78
2021/05/08 07:44:11;;;;;;;2.17;1.90;;;14.00;99.90;;;;;;5024316;28;20084;-78
2021/05/08 07:46:37;;;;;;;1.60;1.50;;;14.20;99.90;;;;;;5027358;28;20038;-77
2021/05/08 07:49:03;;;;;;;2.25;2.05;;;14.30;99.90;;;;;;5024081;28;20033;-77
2021/05/08 07:51:28;;;;;;;1.92;1.70;;;14.40;99.90;;;;;;5027219;28;20021;-74
2021/05/08 07:53:54;;;;;;;2.20;2.00;;;14.60;99.90;;;;;;5014500;28;20060;-74
2021/05/08 07:56:22;;;;;;;3.25;1.67;;;14.70;99.90;;;;;;5015523;28;20026;-74
2021/05/08 07:58:48;;;;;;;2.70;1.40;;;15.00;99.90;;;;;;5014885;28;20029;-74
2021/05/08 08:01:13;;;;;;;1.88;1.77;;;15.40;99.90;;;;;;5015224;28;20052;-74
2021/05/08 08:03:39;;;;;;;4.20;1.60;;;15.60;99.90;;;;;;5014761;28;20494;-74
2021/05/08 08:06:05;;;;;;;2.58;1.50;;;15.80;99.90;;;;;;5015174;28;20034;-74
2021/05/08 08:08:31;;;;;;;1.63;1.52;;;16.00;99.90;;;;;;5014886;28;20030;-74
2021/05/08 08:10:57;;;;;;;2.13;1.50;;;16.10;99.90;;;;;;5015013;28;20478;-74
2021/05/08 08:13:23;;;;;;;2.38;1.45;;;16.20;99.90;;;;;;5013623;28;20033;-74
2021/05/08 08:15:48;;;;;;;1.40;1.27;;;16.20;99.90;;;;;;5014886;28;20030;-74
2021/05/08 08:18:14;;;;;;;1.55;1.42;;;16.50;99.90;;;;;;5014868;28;20101;-74
2021/05/08 08:20:40;;;;;;;2.15;1.98;;;16.60;99.90;;;;;;5014842;28;20109;-74
2021/05/08 08:23:06;;;;;;;4.30;1.45;;;16.90;99.90;;;;;;5014864;28;20462;-74
2021/05/08 08:25:32;;;;;;;1.17;1.08;;;17.20;99.90;;;;;;5014741;28;20386;-74
2021/05/08 08:27:57;;;;;;;3.03;1.40;;;17.50;99.90;;;;;;5014457;28;20025;-74
2021/05/08 08:30:23;;;;;;;3.22;1.48;;;17.80;99.90;;;;;;5014763;28;20022;-74
2021/05/08 08:32:49;;;;;;;2.15;1.70;;;17.90;99.90;;;;;;5014454;28;20132;-74
2021/05/08 08:35:15;;;;;;;2.63;1.55;;;18.00;99.90;;;;;;5014645;28;20533;-74
2021/05/08 08:37:41;;;;;;;3.65;1.40;;;18.20;99.90;;;;;;5014528;28;20034;-74
2021/05/08 08:40:08;;;;;;;1.80;1.70;;;18.40;99.90;;;;;;5014706;28;20014;-74
2021/05/08 08:42:36;;;;;;;3.22;1.60;;;18.70;99.90;;;;;;5013810;28;20060;-74
2021/05/08 08:45:04;;;;;;;1.35;1.25;;;18.90;99.90;;;;;;5014397;28;20096;-74
2021/05/08 08:47:31;;;;;;;3.67;1.75;;;19.20;99.90;;;;;;5014470;28;20030;-74
2021/05/08 08:49:59;;;;;;;1.55;1.15;;;19.50;99.90;;;;;;5014142;28;20474;-74
2021/05/08 08:52:25;;;;;;;4.50;1.48;;;19.70;99.90;;;;;;5014244;28;20025;-74
2021/05/08 08:54:52;;;;;;;3.28;1.55;;;19.90;99.90;;;;;;5014124;28;20029;-74
2021/05/08 08:57:23;;;;;;;3.28;1.17;;;20.30;99.90;;;;;;5013991;28;20052;-74
2021/05/08 08:59:50;;;;;;;1.92;1.33;;;20.50;99.90;;;;;;5013927;28;20030;-74
2021/05/08 09:02:15;;;;;;;1.92;1.20;;;21.10;99.90;;;;;;5013881;28;20532;-74
2021/05/08 09:04:41;;;;;;;2.58;1.20;;;21.40;99.90;;;;;;5013865;28;20034;-74
2021/05/08 09:07:08;;;;;;;4.30;1.40;;;21.70;99.90;;;;;;5013260;28;20079;-74
2021/05/08 09:09:35;;;;;;;1.15;0.88;;;21.80;99.90;;;;;;5014059;28;20490;-74
2021/05/08 09:12:01;;;;;;;3.80;2.08;;;22.20;99.90;;;;;;5013620;28;20064;-74
2021/05/08 09:14:28;;;;;;;4.50;1.30;;;22.40;99.90;;;;;;5013940;28;20061;-74
2021/05/08 09:17:14;;;;;;;2.25;1.10;;;22.70;99.90;;;;;;5013520;28;20044;-74
2021/05/08 09:19:45;;;;;;;1.38;1.27;;;22.80;99.90;;;;;;5013742;28;20022;-74
2021/05/08 09:22:30;;;;;;;2.13;1.10;;;22.80;99.90;;;;;;5013768;28;20029;-74
2021/05/08 09:24:59;;;;;;;1.90;1.30;;;23.10;99.90;;;;;;5012177;28;20116;-74
2021/05/08 09:27:51;;;;;;;2.00;1.50;;;23.20;99.90;;;;;;5013384;28;20026;-74
2021/05/08 09:30:25;;;;;;;2.03;1.20;;;23.40;99.90;;;;;;5013679;28;20030;-74
2021/05/08 09:32:58;;;;;;;3.75;1.17;;;23.70;99.90;;;;;;5013449;28;20026;-74
2021/05/08 09:35:26;;;;;;;3.70;1.17;;;23.90;99.90;;;;;;5011855;28;20536;-74
2021/05/08 09:38:12;;;;;;;3.55;1.60;;;24.10;99.90;;;;;;5013183;28;20104;-75
2021/05/08 09:40:43;;;;;;;2.35;1.45;;;24.20;99.90;;;;;;5011717;28;20038;-74
2021/05/08 09:43:11;;;;;;;3.30;1.13;;;24.30;99.90;;;;;;5013120;28;20092;-75
2021/05/08 09:45:42;;;;;;;1.27;1.10;;;24.40;99.90;;;;;;5013164;28;20032;-74
2021/05/08 09:48:25;;;;;;;2.78;1.60;;;25.30;99.80;;;;;;5013064;28;20037;-72
2021/05/08 09:50:51;;;;;;;2.30;1.83;;;29.40;90.40;;;;;;5012699;28;20049;-74
2021/05/08 09:53:32;;;;;;;2.33;1.80;;;32.00;75.00;;;;;;5013109;28;20084;-73
2021/05/08 09:55:58;;;;;;;2.58;2.38;;;32.80;67.80;;;;;;5012559;28;20030;-74
2021/05/08 09:58:26;;;;;;;1.75;1.65;;;33.80;64.90;;;;;;5013034;28;20030;-74
2021/05/08 10:00:53;;;;;;;3.17;2.00;;;33.60;63.40;;;;;;5013076;28;20490;-74
2021/05/08 10:03:21;;;;;;;2.13;1.77;;;34.10;61.60;;;;;;5012960;28;20052;-74
2021/05/08 10:06:02;;;;;;;1.80;1.70;;;34.30;61.30;;;;;;5012916;28;20053;-74
2021/05/08 10:08:28;;;;;;;3.83;1.80;;;34.60;61.20;;;;;;5012824;28;20033;-74
2021/05/08 10:10:54;;;;;;;2.78;1.98;;;34.90;57.70;;;;;;5012611;28;20022;-74
2021/05/08 10:13:21;;;;;;;2.08;1.70;;;34.70;59.20;;;;;;5011621;28;20030;-74
2021/05/08 10:15:48;;;;;;;1.60;1.50;;;34.50;58.70;;;;;;5013008;28;20029;-74
2021/05/08 10:18:15;;;;;;;3.65;2.00;;;34.90;58.00;;;;;;5012673;28;20084;-74
2021/05/08 10:20:42;;;;;;;1.95;1.85;;;35.20;57.30;;;;;;5012083;28;20041;-74
2021/05/08 10:23:13;;;;;;;3.35;1.92;;;34.60;59.20;;;;;;5012438;28;20018;-74
2021/05/08 10:25:40;;;;;;;2.15;1.90;;;34.70;60.20;;;;;;5012746;28;20080;-74
2021/05/08 10:28:07;;;;;;;3.55;2.20;;;35.60;59.00;;;;;;5012355;28;20445;-74
2021/05/08 10:30:36;;;;;;;2.08;1.98;;;35.30;57.70;;;;;;5012579;28;20087;-74
2021/05/08 10:33:08;;;;;;;2.03;1.92;;;34.90;56.70;;;;;;5012463;28;20021;-74
2021/05/08 10:35:51;;;;;;;1.92;1.77;;;34.70;58.90;;;;;;5012707;28;20029;-74
2021/05/08 10:38:23;;;;;;;2.65;1.65;;;34.50;60.10;;;;;;5012252;28;20036;-74
2021/05/08 10:40:59;;;;;;;2.20;2.00;;;34.60;58.60;;;;;;5012778;28;20095;-74
2021/05/08 10:44:02;;;;;;;2.33;1.65;;;34.40;59.50;;;;;;5012340;28;20165;-74
2021/05/08 10:46:28;;;;;;;2.45;2.20;;;34.40;62.40;;;;;;5012585;28;20018;-74
2021/05/08 10:49:09;;;;;;;3.03;2.00;;;34.50;60.10;;;;;;5012436;28;20025;-74
2021/05/08 10:51:53;;;;;;;2.50;2.03;;;34.80;59.50;;;;;;5011288;28;20076;-74
2021/05/08 10:54:39;;;;;;;2.83;2.00;;;35.80;60.20;;;;;;5011915;28;20038;-74
2021/05/08 10:57:18;;;;;;;2.65;2.45;;;36.00;59.10;;;;;;5012144;28;20548;-75
2021/05/08 11:00:02;;;;;;;2.92;1.90;;;36.00;57.30;;;;;;5012500;28;20371;-74
2021/05/08 11:02:40;;;;;;;2.33;2.03;;;36.10;56.20;;;;;;5012264;28;20046;-74
2021/05/08 11:05:26;;;;;;;4.13;2.00;;;36.50;54.50;;;;;;5011923;28;20026;-74
2021/05/08 11:07:53;;;;;;;2.10;1.90;;;35.90;56.10;;;;;;5011995;28;20430;-74
2021/05/08 11:10:33;;;;;;;2.67;2.17;;;35.30;55.90;;;;;;5012344;28;20026;-74
2021/05/08 11:13:14;;;;;;;2.47;2.25;;;36.20;55.80;;;;;;5012143;28;20021;-75
2021/05/08 11:18:41;;;;;;;4.53;2.22;;;38.10;56.40;;;;;;5012124;28;20033;-74
2021/05/08 11:21:15;;;;;;;2.77;1.97;;;36.60;55.30;;;;;;5011747;28;20030;-75
2021/05/08 11:23:51;;;;;;;2.90;2.20;;;36.00;56.00;;;;;;5012598;28;20038;-74
2021/05/08 11:26:24;;;;;;;5.90;2.53;;;36.50;56.20;;;;;;5011949;28;20104;-74
2021/05/08 11:28:56;;;;;;;2.55;2.17;;;37.10;56.20;;;;;;5012293;28;20033;-75
2021/05/08 11:31:30;;;;;;;2.63;2.22;;;37.20;54.00;;;;;;5014323;28;20378;-75
2021/05/08 11:34:06;;;;;;;1.90;1.80;;;37.00;55.40;;;;;;5015623;28;20113;-75
2021/05/08 11:36:40;;;;;;;3.63;2.10;;;37.70;52.80;;;;;;5015402;28;20018;-75
2021/05/08 11:39:32;;;;;;;3.45;2.28;;;37.90;53.30;;;;;;5015484;28;20033;-75
2021/05/08 11:41:59;;;;;;;3.25;2.22;;;37.40;51.90;;;;;;5013513;28;20057;-74
2021/05/08 11:44:29;;;;;;;2.80;2.20;;;38.20;51.00;;;;;;5015520;28;20112;-75
2021/05/08 11:50:05;;;;;;;3.90;2.20;;;38.80;51.30;;;;;;5015533;28;20022;-75
2021/05/08 11:52:44;;;;;;;2.72;2.08;;;39.20;50.10;;;;;;5015318;28;20034;-75
2021/05/08 11:55:13;;;;;;;4.15;2.08;;;38.80;50.10;;;;;;5015255;28;20060;-75
2021/05/08 11:57:43;;;;;;;2.13;1.95;;;39.10;47.80;;;;;;5015317;28;20469;-75
2021/05/08 12:00:21;;;;;;;3.60;2.10;;;39.20;47.90;;;;;;5015286;28;20478;-75
2021/05/08 12:02:47;;;;;;;2.38;2.20;;;40.20;47.40;;;;;;5015109;28;20049;-75
2021/05/08 12:05:13;;;;;;;3.40;1.88;;;40.70;46.70;;;;;;5014827;28;20038;-75
2021/05/08 12:07:49;;;;;;;2.50;1.85;;;39.80;48.20;;;;;;5015090;28;20022;-75
2021/05/08 12:10:22;;;;;;;2.40;2.20;;;39.90;46.90;;;;;;5014975;28;20068;-75
2021/05/08 12:12:52;;;;;;;2.67;1.98;;;39.00;47.60;;;;;;5015233;28;20028;-75
2021/05/08 12:15:21;;;;;;;3.00;2.00;;;38.40;48.00;;;;;;5014745;28;20528;-75
2021/05/08 12:17:52;;;;;;;3.72;1.98;;;39.60;50.00;;;;;;5015081;28;20034;-75
2021/05/08 12:20:19;;;;;;;3.33;2.13;;;39.70;46.80;;;;;;5014454;28;20088;-75
2021/05/08 12:22:46;;;;;;;2.40;2.20;;;39.80;45.00;;;;;;5014893;28;20116;-75
2021/05/08 12:25:25;;;;;;;5.50;2.40;;;39.30;46.10;;;;;;5014602;28;20026;-75
2021/05/08 12:28:12;;;;;;;2.20;2.00;;;40.20;46.20;;;;;;5014796;28;20030;-75
2021/05/08 12:30:38;;;;;;;2.33;2.00;;;39.50;45.40;;;;;;5014748;28;20030;-75
2021/05/08 12:33:04;;;;;;;2.75;2.15;;;39.30;45.00;;;;;;5014638;28;20100;-75
2021/05/08 12:35:30;;;;;;;2.92;2.65;;;39.70;43.30;;;;;;5014648;28;20028;-75
2021/05/08 12:37:56;;;;;;;2.15;2.05;;;40.80;43.60;;;;;;5014665;28;20048;-75
2021/05/08 12:40:33;;;;;;;3.55;2.15;;;39.50;43.30;;;;;;5014359;28;20033;-75
2021/05/08 12:42:59;;;;;;;4.45;2.05;;;38.80;46.00;;;;;;5013427;28;20030;-75
2021/05/08 12:45:25;;;;;;;2.22;2.03;;;38.90;45.80;;;;;;5014241;28;20374;-75
2021/05/08 12:47:51;;;;;;;6.00;2.30;;;40.10;46.80;;;;;;5014349;28;20084;-75
2021/05/08 12:50:27;;;;;;;3.45;2.33;;;40.10;44.80;;;;;;5013913;28;20029;-75
2021/05/08 12:53:01;;;;;;;2.05;1.95;;;39.80;44.20;;;;;;5014247;28;20034;-75
2021/05/08 12:55:38;;;;;;;2.00;1.90;;;39.10;45.00;;;;;;5014173;28;20026;-76
2021/05/08 12:58:09;;;;;;;2.25;2.05;;;39.10;44.30;;;;;;5014392;28;20096;-75